Time;durP1;ratioP1;P1;durP2;ratioP2;P2;SDS_P1;SDS_P2;PMS_P1;PMS_P2;Temp;Humidity;BMP_temperature;BMP_pressure;BME280_temperature;BME280_humidity;BME280_pressure;Samples;Min_cycle;Max_cycle;Signal;HPM_P1;HPM_P2
2022/01/02 00:00:02;;;;;;;;;;;;;;;-8.07;70.92;96085.44;6373171;27;19930;-63
2022/01/02 00:03:23;;;;;;;;;;;;;;;-8.41;71.67;96095.84;6373137;27;19924;-63
2022/01/02 00:06:49;;;;;;;;;;;;;;;-8.34;71.34;96077.06;6372993;27;19923;-62
2022/01/02 00:10:09;;;;;;;;;;;;;;;-8.28;71.20;96079.59;6373239;27;20007;-63
2022/01/02 00:13:33;;;;;;;;;;;;;;;-8.25;71.22;96082.13;6373524;27;19984;-62
2022/01/02 00:16:54;;;;;;;;;;;;;;;-8.34;71.70;96066.88;6372996;27;19957;-63
2022/01/02 00:20:14;;;;;;;;;;;;;;;-8.47;71.36;96060.16;6372617;27;19923;-63
2022/01/02 00:27:11;;;;;;;;;;;;;;;-8.25;71.61;96054.06;6372623;27;20353;-62
2022/01/02 00:30:32;;;;;;;;;;;;;;;-8.26;72.07;96054.09;6372547;27;19924;-63
2022/01/02 00:33:54;;;;;;;;;;;;;;;-8.45;71.97;96051.63;6372648;27;19923;-63
2022/01/02 00:37:14;;;;;;;;;;;;;;;-8.14;72.08;96057.41;6372558;27;19923;-62
2022/01/02 00:40:38;;;;;;;;;;;;;;;-8.25;71.95;96061.72;6372284;27;19923;-63
2022/01/02 00:44:04;;;;;;;;;;;;;;;-8.20;71.27;96052.34;6372104;27;20018;-63
2022/01/02 00:47:36;;;;;;;;;;;;;;;-7.99;70.86;96058.19;6371187;27;20026;-62
2022/01/02 00:51:01;;;;;;;;;;;;;;;-7.95;70.64;96050.50;6353653;27;19931;-63
2022/01/02 00:54:28;;;;;;;;;;;;;;;-8.02;71.38;96048.00;6372018;27;20679;-62
2022/01/02 00:57:55;;;;;;;;;;;;;;;-8.08;71.87;96040.38;6372079;27;19923;-63
2022/01/02 01:01:22;;;;;;;;;;;;;;;-8.01;72.12;96044.56;6372231;27;19923;-63
2022/01/02 01:04:43;;;;;;;;;;;;;;;-7.94;72.01;96046.25;6371681;27;20300;-63
2022/01/02 01:08:06;;;;;;;;;;;;;;;-8.07;71.99;96049.72;6371875;27;19923;-63
2022/01/02 01:11:26;;;;;;;;;;;;;;;-7.96;71.36;96043.69;6371798;27;20005;-63
2022/01/02 01:14:49;;;;;;;;;;;;;;;-8.03;71.59;96044.59;6371805;27;19923;-62
2022/01/02 01:18:09;;;;;;;;;;;;;;;-7.99;71.97;96048.81;6371580;28;20411;-63
2022/01/02 01:21:29;;;;;;;;;;;;;;;-7.99;71.40;96042.88;6371628;28;20309;-63
2022/01/02 01:24:49;;;;;;;;;;;;;;;-8.04;71.22;96039.47;6371593;28;19931;-63
2022/01/02 01:28:08;;;;;;;;;;;;;;;-8.02;72.04;96038.63;6371659;28;19931;-63
2022/01/02 01:31:28;;;;;;;;;;;;;;;-8.02;71.76;96037.78;6371695;28;20417;-63
2022/01/02 01:34:48;;;;;;;;;;;;;;;-8.06;71.73;96020.78;6371436;28;19931;-63
2022/01/02 01:38:10;;;;;;;;;;;;;;;-8.10;72.41;96014.00;6371299;28;19927;-63
2022/01/02 01:41:33;;;;;;;;;;;;;;;-7.92;72.69;96019.84;6371376;28;19931;-63
2022/01/02 01:45:28;;;;;;;;;;;;;;;-8.10;72.70;96008.88;6371776;28;20416;-63
2022/01/02 01:48:32;;;;;;;;;;;;;;;-8.07;72.37;96008.88;6352896;28;20331;-63
2022/01/02 01:51:52;;;;;;;;;;;;;;;-7.99;72.04;96012.22;6371482;28;19930;-63
2022/01/02 01:55:11;;;;;;;;;;;;;;;-8.05;73.05;96002.91;6371446;27;19923;-63
2022/01/02 01:58:33;;;;;;;;;;;;;;;-8.02;73.05;96007.16;6376216;27;19927;-63
2022/01/02 02:01:53;;;;;;;;;;;;;;;-7.92;72.15;96003.69;6376317;27;20308;-62
2022/01/02 02:05:13;;;;;;;;;;;;;;;-7.98;72.83;95993.50;6376182;27;19920;-63
2022/01/02 02:08:35;;;;;;;;;;;;;;;-7.88;72.36;95996.84;6376102;27;19992;-64
2022/01/02 02:11:59;;;;;;;;;;;;;;;-7.86;72.31;95998.53;6376149;27;19979;-62
2022/01/02 02:15:19;;;;;;;;;;;;;;;-8.04;72.33;95998.63;6376001;27;19923;-62
2022/01/02 02:18:39;;;;;;;;;;;;;;;-7.74;71.94;95985.66;6375750;27;20029;-63
2022/01/02 02:21:58;;;;;;;;;;;;;;;-7.89;72.07;95983.22;6375602;27;19930;-62
2022/01/02 02:25:20;;;;;;;;;;;;;;;-7.90;72.07;95981.50;6375661;27;19931;-63
2022/01/02 02:28:39;;;;;;;;;;;;;;;-7.97;71.85;95985.00;6375930;27;19930;-62
2022/01/02 02:31:59;;;;;;;;;;;;;;;-7.85;71.85;95991.72;6375631;27;19930;-63
2022/01/02 02:35:18;;;;;;;;;;;;;;;-7.88;72.11;95979.81;6375426;27;19931;-62
2022/01/02 02:38:39;;;;;;;;;;;;;;;-8.05;72.44;95986.75;6375360;27;20408;-63
2022/01/02 02:41:59;;;;;;;;;;;;;;;-8.09;73.03;95979.97;6375385;27;19928;-62
2022/01/02 02:49:02;;;;;;;;;;;;;;;-7.76;72.59;95974.59;6374964;27;19923;-62
2022/01/02 02:52:38;;;;;;;;;;;;;;;-7.92;72.56;95978.16;6375060;27;20415;-62
2022/01/02 02:56:00;;;;;;;;;;;;;;;-7.99;73.50;95967.13;6374958;27;19931;-62
2022/01/02 02:59:23;;;;;;;;;;;;;;;-7.89;72.91;95973.03;6374911;27;19923;-62
2022/01/02 03:02:45;;;;;;;;;;;;;;;-7.77;73.37;95967.81;6374888;27;20328;-62
2022/01/02 03:06:05;;;;;;;;;;;;;;;-7.69;72.95;95965.19;6374961;27;19929;-62
2022/01/02 03:09:38;;;;;;;;;;;;;;;-7.85;72.92;95954.25;6374820;27;20018;-62
2022/01/02 03:13:03;;;;;;;;;;;;;;;-7.57;72.68;95954.03;6374688;27;20312;-62
2022/01/02 03:16:22;;;;;;;;;;;;;;;-7.78;73.19;95955.91;6374461;27;19923;-62
2022/01/02 03:19:42;;;;;;;;;;;;;;;-7.67;73.39;95953.28;6374144;27;19932;-62
2022/01/02 03:23:02;;;;;;;;;;;;;;;-7.81;74.00;95947.41;6374404;27;20021;-62
2022/01/02 03:26:24;;;;;;;;;;;;;;;-7.79;74.01;95954.19;6373903;27;19923;-62
2022/01/02 03:29:46;;;;;;;;;;;;;;;-7.93;73.82;95950.91;6374165;27;20384;-62
2022/01/02 03:33:08;;;;;;;;;;;;;;;-7.68;74.16;95949.84;6374017;27;20346;-62
2022/01/02 03:36:30;;;;;;;;;;;;;;;-7.79;74.38;95943.97;6373790;27;19954;-62
2022/01/02 03:39:49;;;;;;;;;;;;;;;-7.78;74.47;95938.03;6373601;27;19924;-62
2022/01/02 03:43:11;;;;;;;;;;;;;;;-7.82;74.67;95944.00;6373738;27;19927;-62
2022/01/02 03:46:31;;;;;;;;;;;;;;;-7.62;75.07;95945.53;6373734;27;19953;-62
2022/01/02 03:49:51;;;;;;;;;;;;;;;-7.61;74.88;95927.66;6373612;27;19953;-62
2022/01/02 03:53:10;;;;;;;;;;;;;;;-7.60;74.66;95925.94;6373442;27;19930;-63
2022/01/02 03:56:30;;;;;;;;;;;;;;;-7.52;74.31;95929.28;6373434;27;19923;-62
2022/01/02 03:59:50;;;;;;;;;;;;;;;-7.48;74.08;95923.28;6373200;27;20304;-63
2022/01/02 04:03:10;;;;;;;;;;;;;;;-7.36;74.26;95923.16;6357816;27;19930;-63
2022/01/02 04:06:32;;;;;;;;;;;;;;;-7.43;74.21;95918.97;6373045;27;19924;-61
2022/01/02 04:09:54;;;;;;;;;;;;;;;-7.49;73.90;95921.59;6372796;27;20359;-62
2022/01/02 04:13:16;;;;;;;;;;;;;;;-7.32;73.82;95918.88;6372693;27;19923;-62
2022/01/02 04:16:39;;;;;;;;;;;;;;;-7.21;74.23;95921.31;6372602;27;19927;-62
2022/01/02 04:19:59;;;;;;;;;;;;;;;-7.10;74.13;95914.38;6371865;27;20308;-62
2022/01/02 04:23:19;;;;;;;;;;;;;;;-7.27;73.05;95912.00;6372791;27;19930;-62
2022/01/02 04:26:38;;;;;;;;;;;;;;;-7.27;73.31;95907.72;6372598;27;19931;-62
2022/01/02 04:29:58;;;;;;;;;;;;;;;-6.98;73.21;95909.09;6372395;27;20320;-63
2022/01/02 04:33:20;;;;;;;;;;;;;;;-6.97;72.67;95900.56;6372068;27;19923;-62
2022/01/02 04:36:40;;;;;;;;;;;;;;;-7.05;72.42;95907.47;6372170;27;19924;-62
2022/01/02 04:40:00;;;;;;;;;;;;;;;-7.09;72.28;95900.72;6372165;27;19924;-62
2022/01/02 04:43:19;;;;;;;;;;;;;;;-7.24;72.90;95891.50;6372413;27;20708;-64
2022/01/02 04:46:39;;;;;;;;;;;;;;;-7.23;73.21;95888.94;6372171;27;20281;-63
2022/01/02 04:50:04;;;;;;;;;;;;;;;-7.31;73.12;95885.59;6372040;27;19923;-62
2022/01/02 04:53:24;;;;;;;;;;;;;;;-7.28;73.00;95885.56;6372222;27;19930;-61
2022/01/02 04:56:48;;;;;;;;;;;;;;;-6.95;73.06;95882.66;6372062;27;19923;-62
2022/01/02 05:00:08;;;;;;;;;;;;;;;-6.91;72.31;95884.28;6372013;27;19923;-62
2022/01/02 05:03:27;;;;;;;;;;;;;;;-7.13;72.85;95873.47;6372219;27;19930;-63
2022/01/02 05:06:47;;;;;;;;;;;;;;;-7.18;73.70;95878.66;6371796;27;20328;-62
2022/01/02 05:10:07;;;;;;;;;;;;;;;-7.11;73.65;95862.38;6371701;27;19927;-63
2022/01/02 05:13:29;;;;;;;;;;;;;;;-6.73;72.45;95863.59;6371588;27;19923;-63
2022/01/02 05:16:51;;;;;;;;;;;;;;;-6.78;71.78;95857.69;6371743;27;19923;-63
2022/01/02 05:20:13;;;;;;;;;;;;;;;-6.79;71.44;95844.06;6371294;28;19937;-64
2022/01/02 05:23:33;;;;;;;;;;;;;;;-6.68;71.23;95845.63;6371837;28;19934;-62
2022/01/02 05:26:55;;;;;;;;;;;;;;;-6.74;71.29;95838.03;6371545;28;20308;-63
2022/01/02 05:30:14;;;;;;;;;;;;;;;-6.76;71.52;95838.06;6371815;27;19930;-63
2022/01/02 05:33:33;;;;;;;;;;;;;;;-6.60;71.11;95848.91;6376883;27;19923;-63
2022/01/02 05:36:55;;;;;;;;;;;;;;;-6.68;70.84;95836.25;6376822;27;19923;-62
2022/01/02 05:40:17;;;;;;;;;;;;;;;-6.77;71.07;95837.19;6376669;27;19927;-62
2022/01/02 05:43:38;;;;;;;;;;;;;;;-6.68;71.56;95848.16;6376629;27;19923;-63
2022/01/02 05:47:00;;;;;;;;;;;;;;;-6.47;70.05;95840.19;6376330;27;19984;-63
2022/01/02 05:50:20;;;;;;;;;;;;;;;-6.59;70.60;95825.88;6376407;27;19958;-63
2022/01/02 05:53:39;;;;;;;;;;;;;;;-6.68;70.62;95822.59;6376112;27;19933;-62
2022/01/02 05:56:59;;;;;;;;;;;;;;;-6.58;70.93;95826.72;6376028;27;20270;-62
2022/01/02 06:00:18;;;;;;;;;;;;;;;-6.80;71.22;95813.38;6375764;27;19930;-62
2022/01/02 06:03:40;;;;;;;;;;;;;;;-6.60;71.45;95815.66;6375980;27;19924;-62
2022/01/02 06:07:04;;;;;;;;;;;;;;;-6.38;69.55;95819.56;6375897;27;19923;-63
2022/01/02 06:10:26;;;;;;;;;;;;;;;-6.69;70.17;95818.34;6375805;27;20312;-63
2022/01/02 06:13:46;;;;;;;;;;;;;;;-6.54;70.89;95807.88;6375831;27;19978;-62
2022/01/02 06:17:06;;;;;;;;;;;;;;;-6.52;70.58;95806.16;6375709;27;19952;-62
2022/01/02 06:20:26;;;;;;;;;;;;;;;-6.40;69.60;95820.47;6375275;27;19923;-62
2022/01/02 06:23:46;;;;;;;;;;;;;;;-6.71;70.70;95836.25;6375137;27;19924;-63
2022/01/02 06:27:08;;;;;;;;;;;;;;;-6.71;71.67;95835.44;6375358;27;19923;-62
2022/01/02 06:30:27;;;;;;;;;;;;;;;-6.61;70.87;95834.44;6375304;27;19923;-64
2022/01/02 06:33:50;;;;;;;;;;;;;;;-6.61;71.43;95821.66;6375028;27;19927;-62
2022/01/02 06:37:09;;;;;;;;;;;;;;;-6.54;70.68;95818.09;6375108;27;19930;-63
2022/01/02 06:40:29;;;;;;;;;;;;;;;-6.45;70.46;95805.19;6374990;27;19934;-62
2022/01/02 06:43:52;;;;;;;;;;;;;;;-6.49;71.17;95800.13;6374530;27;20312;-62
2022/01/02 06:47:11;;;;;;;;;;;;;;;-6.61;71.47;95796.06;6375355;27;19923;-63
2022/01/02 06:50:31;;;;;;;;;;;;;;;-6.42;71.70;95800.03;6374928;27;20022;-63
2022/01/02 06:53:54;;;;;;;;;;;;;;;-6.42;71.66;95794.91;6375113;27;19927;-64
2022/01/02 06:57:14;;;;;;;;;;;;;;;-6.30;71.70;95798.13;6374808;27;19923;-63
2022/01/02 07:00:37;;;;;;;;;;;;;;;-6.20;71.03;95786.84;6374557;27;19923;-61
2022/01/02 07:03:56;;;;;;;;;;;;;;;-6.06;69.36;95795.16;6374839;27;19930;-63
2022/01/02 07:07:16;;;;;;;;;;;;;;;-6.24;69.61;95785.22;6374559;27;19946;-63
2022/01/02 07:10:36;;;;;;;;;;;;;;;-6.30;69.55;95775.09;6374693;27;19930;-63
2022/01/02 07:13:58;;;;;;;;;;;;;;;-6.34;70.99;95775.16;6374628;27;20330;-63
2022/01/02 07:17:18;;;;;;;;;;;;;;;-6.49;71.35;95767.72;6374405;27;19930;-63
2022/01/02 07:20:41;;;;;;;;;;;;;;;-6.40;71.52;95764.16;6373831;27;19930;-62
2022/01/02 07:24:03;;;;;;;;;;;;;;;-6.46;71.40;95752.31;6374105;27;19954;-63
2022/01/02 07:27:22;;;;;;;;;;;;;;;-6.31;71.82;95753.78;6374229;27;19938;-63
2022/01/02 07:30:42;;;;;;;;;;;;;;;-6.36;71.93;95756.41;6374217;27;19930;-63
2022/01/02 07:34:04;;;;;;;;;;;;;;;-6.14;71.44;95748.38;6373884;27;19930;-61
2022/01/02 07:37:24;;;;;;;;;;;;;;;-6.05;70.61;95739.69;6373784;27;19961;-64
2022/01/02 07:40:49;;;;;;;;;;;;;;;-6.03;71.28;95749.00;6373820;27;20411;-62
2022/01/02 07:44:13;;;;;;;;;;;;;;;-6.01;70.75;95728.50;6373698;27;19931;-62
2022/01/02 07:47:32;;;;;;;;;;;;;;;-5.95;69.86;95734.34;6373565;27;20471;-63
2022/01/02 07:50:52;;;;;;;;;;;;;;;-6.00;70.55;95743.84;6373466;27;19927;-63
2022/01/02 07:54:14;;;;;;;;;;;;;;;-5.94;70.23;95730.91;6372105;27;19923;-63
2022/01/02 07:57:36;;;;;;;;;;;;;;;-5.87;69.44;95729.88;6373186;27;19930;-63
2022/01/02 08:00:58;;;;;;;;;;;;;;;-5.97;69.20;95720.72;6373101;27;20031;-62
2022/01/02 08:04:19;;;;;;;;;;;;;;;-5.95;69.34;95715.56;6372988;27;19930;-62
2022/01/02 08:07:43;;;;;;;;;;;;;;;-6.01;69.29;95720.81;6373197;27;19923;-62
2022/01/02 08:11:04;;;;;;;;;;;;;;;-6.03;68.67;95723.38;6372561;27;19928;-63
2022/01/02 08:14:27;;;;;;;;;;;;;;;-6.10;68.12;95709.03;6372938;27;20419;-63
2022/01/02 08:17:49;;;;;;;;;;;;;;;-6.15;68.41;95713.38;6373150;27;19923;-63
2022/01/02 08:21:10;;;;;;;;;;;;;;;-6.36;68.28;95705.22;6372544;27;20377;-64
2022/01/02 08:24:30;;;;;;;;;;;;;;;-6.50;69.75;95689.25;6372990;27;19923;-62
2022/01/02 08:27:55;;;;;;;;;;;;;;;-6.70;70.23;95693.88;6372609;27;19923;-63
2022/01/02 08:31:19;;;;;;;;;;;;;;;-6.56;69.81;95697.06;6371559;27;20415;-64
2022/01/02 08:34:40;;;;;;;;;;;;;;;-6.69;69.77;95675.94;6372519;27;19924;-63
2022/01/02 08:37:59;;;;;;;;;;;;;;;-6.51;69.34;95671.38;6372554;27;19923;-63
2022/01/02 08:41:19;;;;;;;;;;;;;;;-6.74;68.66;95672.59;6372162;27;19923;-62
2022/01/02 08:44:39;;;;;;;;;;;;;;;-6.80;68.67;95668.44;6372045;27;19938;-63
2022/01/02 08:48:03;;;;;;;;;;;;;;;-6.90;69.28;95661.78;6372180;27;20304;-63
2022/01/02 08:51:23;;;;;;;;;;;;;;;-6.77;68.54;95658.16;6372748;27;20014;-63
2022/01/02 08:54:43;;;;;;;;;;;;;;;-6.88;68.20;95654.94;6372122;27;19934;-63
2022/01/02 08:58:03;;;;;;;;;;;;;;;-7.23;69.17;95658.03;6371807;27;19930;-63
2022/01/02 09:01:25;;;;;;;;;;;;;;;-7.14;68.34;95646.84;6371752;27;20264;-62
2022/01/02 09:04:44;;;;;;;;;;;;;;;-7.17;69.11;95641.78;6371402;27;19923;-62
2022/01/02 09:08:04;;;;;;;;;;;;;;;-7.04;69.01;95650.94;6371755;27;19930;-62
2022/01/02 09:11:24;;;;;;;;;;;;;;;-7.17;68.59;95646.88;6371880;27;19923;-63
2022/01/02 09:14:44;;;;;;;;;;;;;;;-7.14;68.21;95651.94;6371737;27;19930;-63
2022/01/02 09:18:05;;;;;;;;;;;;;;;-7.25;69.23;95652.94;6371735;27;19930;-63
2022/01/02 09:21:24;;;;;;;;;;;;;;;-7.33;67.75;95654.78;6371223;28;20008;-62
2022/01/02 09:24:45;;;;;;;;;;;;;;;-7.48;67.80;95663.50;6371472;28;20338;-62
2022/01/02 09:28:07;;;;;;;;;;;;;;;-7.40;67.72;95655.75;6371668;28;20414;-61
2022/01/02 09:31:26;;;;;;;;;;;;;;;-7.64;68.01;95656.06;6371666;28;19923;-62
2022/01/02 09:34:48;;;;;;;;;;;;;;;-7.95;68.43;95653.94;6371669;28;20407;-63
2022/01/02 09:38:08;;;;;;;;;;;;;;;-7.79;68.34;95652.84;6371312;28;19923;-62
2022/01/02 09:41:28;;;;;;;;;;;;;;;-8.08;69.46;95655.78;6371322;28;19928;-63
2022/01/02 09:44:47;;;;;;;;;;;;;;;-8.00;69.58;95653.16;6371429;28;19931;-63
2022/01/02 09:48:09;;;;;;;;;;;;;;;-7.98;69.15;95646.28;6371591;28;20365;-62
2022/01/02 09:51:29;;;;;;;;;;;;;;;-7.88;68.69;95632.56;6371412;28;20438;-62
2022/01/02 09:54:49;;;;;;;;;;;;;;;-7.90;68.52;95634.28;6371300;28;20014;-62
2022/01/02 09:57:52;;;;;;;;;;;;;;;-8.02;69.13;95619.13;6370261;28;19923;-62
2022/01/02 10:00:54;;;;;;;;;;;;;;;-7.87;68.49;95618.91;6370010;28;19930;-63
2022/01/02 10:03:56;;;;;;;;;;;;;;;-7.87;68.47;95611.25;6370683;28;19923;-61
2022/01/02 10:06:56;;;;;;;;;;;;;;;-7.94;67.91;95607.94;6371213;28;19930;-64
2022/01/02 10:10:07;;;;;;;;;;;;;;;-7.72;66.95;95598.28;6370932;28;19923;-63
2022/01/02 10:13:10;;;;;;;;;;;;;;;-7.93;68.01;95603.69;6370283;28;19931;-62
2022/01/02 10:16:26;;;;;;;;;;;;;;;-7.99;68.56;95603.78;6370885;27;19923;-62
2022/01/02 10:19:32;;;;;;;;;;;;;;;-8.00;68.86;95604.66;6375657;27;19939;-63
2022/01/02 10:22:33;;;;;;;;;;;;;;;-8.03;68.82;95607.25;6375626;27;19928;-62
2022/01/02 10:25:40;;;;;;;;;;;;;;;-7.90;67.85;95603.66;6375562;27;20555;-62
2022/01/02 10:28:42;;;;;;;;;;;;;;;-7.96;68.03;95590.97;6374998;27;19923;-62
2022/01/02 10:31:43;;;;;;;;;;;;;;;-7.78;67.49;95583.06;6375398;27;19931;-61
2022/01/02 10:34:44;;;;;;;;;;;;;;;-7.83;67.51;95579.72;6375645;27;20285;-63
2022/01/02 10:37:50;;;;;;;;;;;;;;;-7.93;67.55;95567.94;6375283;27;19992;-62
2022/01/02 10:40:51;;;;;;;;;;;;;;;-8.09;67.52;95574.16;6374364;27;19924;-62
2022/01/02 10:43:51;;;;;;;;;;;;;;;-7.97;67.69;95589.28;6374114;27;19968;-62
2022/01/02 10:47:14;;;;;;;;;;;;;;;-8.09;68.02;95592.00;6374603;27;19928;-63
2022/01/02 10:50:17;;;;;;;;;;;;;;;-8.26;67.95;95587.13;6357948;27;19931;-62
2022/01/02 10:53:18;;;;;;;;;;;;;;;-8.42;68.86;95583.94;6375165;27;19930;-62
2022/01/02 10:56:23;;;;;;;;;;;;;;;-8.39;69.33;95581.34;6374820;27;20022;-62
2022/01/02 10:59:24;;;;;;;;;;;;;;;-8.24;68.53;95567.50;6373728;27;19935;-63
2022/01/02 11:02:26;;;;;;;;;;;;;;;-8.26;68.10;95580.31;6373895;27;19923;-62
2022/01/02 11:05:28;;;;;;;;;;;;;;;-8.47;69.44;95575.47;6373114;27;19930;-63
2022/01/02 11:08:37;;;;;;;;;;;;;;;-8.33;69.50;95568.47;6374480;27;19923;-62
2022/01/02 11:11:39;;;;;;;;;;;;;;;-8.52;69.08;95567.03;6374119;27;20031;-63
2022/01/02 11:14:40;;;;;;;;;;;;;;;-8.46;69.47;95567.00;6374394;27;19924;-62
2022/01/02 11:17:41;;;;;;;;;;;;;;;-8.52;69.81;95562.81;6373738;27;19926;-62
2022/01/02 11:20:44;;;;;;;;;;;;;;;-8.33;69.37;95563.38;6374255;27;20384;-62
2022/01/02 11:23:54;;;;;;;;;;;;;;;-8.57;69.92;95554.34;6373262;27;19931;-63
2022/01/02 11:26:55;;;;;;;;;;;;;;;-8.51;70.45;95558.53;6373479;27;19969;-62
2022/01/02 11:29:59;;;;;;;;;;;;;;;-8.44;70.18;95565.25;6373100;27;19923;-63
2022/01/02 11:33:08;;;;;;;;;;;;;;;-8.38;69.60;95567.69;6355900;27;19928;-63
2022/01/02 11:36:23;;;;;;;;;;;;;;;-8.61;70.04;95571.38;6372846;27;19923;-63
2022/01/02 11:39:24;;;;;;;;;;;;;;;-8.64;70.03;95568.88;6373626;27;19976;-63
2022/01/02 11:42:34;;;;;;;;;;;;;;;-8.62;70.93;95561.22;6373650;27;19923;-62
2022/01/02 11:45:38;;;;;;;;;;;;;;;-8.54;70.83;95566.22;6373554;27;19919;-62
2022/01/02 11:48:39;;;;;;;;;;;;;;;-8.54;70.56;95561.97;6373551;27;19924;-63
2022/01/02 11:51:59;;;;;;;;;;;;;;;-8.64;70.00;95570.56;6372481;27;19923;-63
2022/01/02 11:55:15;;;;;;;;;;;;;;;-8.86;71.03;95568.28;6372645;27;19927;-63
2022/01/02 11:58:52;;;;;;;;;;;;;;;-9.00;71.62;95574.34;6372690;27;19976;-63
2022/01/02 12:01:57;;;;;;;;;;;;;;;-8.99;72.19;95576.06;6248263;27;19932;-62
2022/01/02 12:05:03;;;;;;;;;;;;;;;-8.69;71.09;95565.53;6372366;27;20313;-62
2022/01/02 12:08:07;;;;;;;;;;;;;;;-8.77;69.39;95567.31;6372376;27;20376;-62
2022/01/02 12:11:29;;;;;;;;;;;;;;;-8.93;69.53;95561.53;6372956;27;20004;-63
2022/01/02 12:14:32;;;;;;;;;;;;;;;-9.16;69.46;95553.28;6371858;27;19931;-63
2022/01/02 12:18:03;;;;;;;;;;;;;;;-9.29;70.09;95552.53;6372000;27;20010;-62
2022/01/02 12:21:04;;;;;;;;;;;;;;;-9.18;69.59;95540.53;6371770;27;19923;-63
2022/01/02 12:24:12;;;;;;;;;;;;;;;-9.39;69.58;95540.75;6372379;27;19929;-63
2022/01/02 12:27:16;;;;;;;;;;;;;;;-9.50;69.77;95540.84;6371680;27;20217;-62
2022/01/02 12:30:21;;;;;;;;;;;;;;;-9.58;69.87;95551.09;6371839;27;19929;-62
2022/01/02 12:33:25;;;;;;;;;;;;;;;-9.44;70.25;95547.59;6372659;27;19919;-62
2022/01/02 12:36:26;;;;;;;;;;;;;;;-9.79;70.00;95541.09;6370707;27;20403;-62
2022/01/02 12:39:32;;;;;;;;;;;;;;;-9.52;69.64;95540.84;6370991;27;19964;-63
2022/01/02 12:42:33;;;;;;;;;;;;;;;-9.86;70.19;95536.88;6372098;27;19934;-63
2022/01/02 12:45:34;;;;;;;;;;;;;;;-9.83;70.28;95519.88;6372250;27;19955;-63
2022/01/02 12:48:35;;;;;;;;;;;;;;;-9.56;69.46;95526.47;6372054;27;20087;-63
2022/01/02 12:51:40;;;;;;;;;;;;;;;-9.55;69.80;95525.59;6372122;27;19923;-63
2022/01/02 12:54:50;;;;;;;;;;;;;;;-9.60;68.59;95527.34;6370284;27;19946;-63
2022/01/02 12:58:04;;;;;;;;;;;;;;;-9.65;69.20;95526.56;6371604;27;20384;-62
2022/01/02 13:01:08;;;;;;;;;;;;;;;-9.88;69.20;95525.88;6370663;27;20016;-63
2022/01/02 13:04:11;;;;;;;;;;;;;;;-9.83;69.26;95521.59;6371540;27;20297;-63
2022/01/02 13:07:18;;;;;;;;;;;;;;;-9.78;68.19;95522.41;6371730;27;19926;-63
2022/01/02 13:10:21;;;;;;;;;;;;;;;-9.86;68.67;95519.06;6371808;27;19963;-63
2022/01/02 13:13:31;;;;;;;;;;;;;;;-9.92;69.07;95514.03;6371353;27;19926;-63
2022/01/02 13:16:32;;;;;;;;;;;;;;;-9.99;69.39;95509.00;6371788;27;20400;-63
2022/01/02 13:19:37;;;;;;;;;;;;;;;-9.77;68.36;95496.09;6371036;27;19968;-63
2022/01/02 13:22:49;;;;;;;;;;;;;;;-9.76;67.53;95495.25;6370561;27;20431;-63
2022/01/02 13:25:50;;;;;;;;;;;;;;;-10.00;68.05;95497.09;6371654;28;19924;-62
2022/01/02 13:28:57;;;;;;;;;;;;;;;-10.05;68.48;95511.56;6370953;28;20396;-63
2022/01/02 13:32:10;;;;;;;;;;;;;;;-10.18;68.58;95512.50;6370445;28;19923;-62
2022/01/02 13:35:13;;;;;;;;;;;;;;;-10.09;68.82;95504.81;6371633;28;19923;-62
2022/01/02 13:38:17;;;;;;;;;;;;;;;-10.04;68.76;95484.44;6371365;28;19923;-63
2022/01/02 13:41:20;;;;;;;;;;;;;;;-10.13;68.53;95487.91;6370436;28;19924;-62
2022/01/02 13:44:25;;;;;;;;;;;;;;;-10.06;68.55;95481.06;6371448;28;20316;-63
2022/01/02 13:47:32;;;;;;;;;;;;;;;-10.14;69.18;95482.81;6371353;28;20293;-63
2022/01/02 13:50:38;;;;;;;;;;;;;;;-10.16;69.19;95482.81;6371307;27;20388;-62
2022/01/02 13:53:41;;;;;;;;;;;;;;;-10.24;69.13;95492.22;6375240;27;19919;-62
2022/01/02 13:56:58;;;;;;;;;;;;;;;-10.27;69.17;95471.91;6375649;27;19927;-63
2022/01/02 14:00:16;;;;;;;;;;;;;;;-10.19;68.87;95475.19;6374912;27;19931;-62
2022/01/02 14:03:39;;;;;;;;;;;;;;;-10.25;69.50;95485.41;6376023;27;20415;-63
2022/01/02 14:06:43;;;;;;;;;;;;;;;-10.35;69.91;95488.91;6375900;27;19927;-62
2022/01/02 14:09:51;;;;;;;;;;;;;;;-10.23;69.57;95484.56;6376142;27;20014;-63
2022/01/02 14:12:56;;;;;;;;;;;;;;;-10.28;69.60;95480.38;6375685;27;19927;-63
2022/01/02 14:16:01;;;;;;;;;;;;;;;-10.20;70.15;95483.69;6374390;27;19924;-63
2022/01/02 14:19:03;;;;;;;;;;;;;;;-10.43;70.28;95487.25;6374897;27;19924;-63
2022/01/02 14:22:06;;;;;;;;;;;;;;;-10.46;70.83;95487.28;6374927;27;19930;-63
2022/01/02 14:25:07;;;;;;;;;;;;;;;-10.29;70.46;95478.69;6374805;27;19923;-62
2022/01/02 14:28:15;;;;;;;;;;;;;;;-10.17;69.33;95469.25;6375432;27;19930;-63
2022/01/02 14:31:18;;;;;;;;;;;;;;;-10.07;69.25;95454.78;6375548;27;19923;-63
2022/01/02 14:34:20;;;;;;;;;;;;;;;-10.28;69.17;95454.94;6374785;27;19924;-63
2022/01/02 14:37:23;;;;;;;;;;;;;;;-10.40;69.53;95435.53;6375428;27;20018;-63
2022/01/02 14:40:24;;;;;;;;;;;;;;;-10.60;70.30;95453.47;6375017;27;20380;-62
2022/01/02 14:43:25;;;;;;;;;;;;;;;-10.47;70.86;95447.47;6374172;27;19931;-63
2022/01/02 14:46:29;;;;;;;;;;;;;;;-10.27;70.13;95441.41;6375113;27;19923;-63
2022/01/02 14:49:30;;;;;;;;;;;;;;;-10.41;70.57;95446.56;6374072;27;19976;-62
2022/01/02 14:52:35;;;;;;;;;;;;;;;-10.29;70.16;95458.34;6374983;27;20445;-62
2022/01/02 14:55:36;;;;;;;;;;;;;;;-10.28;70.09;95453.25;6374859;27;20026;-62
2022/01/02 14:58:37;;;;;;;;;;;;;;;-10.09;69.50;95455.63;6374953;27;19923;-63
2022/01/02 15:01:38;;;;;;;;;;;;;;;-10.20;69.37;95446.38;6373986;27;19927;-63
2022/01/02 15:04:42;;;;;;;;;;;;;;;-10.33;69.82;95436.34;6373521;27;20384;-63
2022/01/02 15:07:48;;;;;;;;;;;;;;;-10.26;69.90;95448.97;6374697;27;19923;-63
2022/01/02 15:10:52;;;;;;;;;;;;;;;-10.41;70.38;95428.78;6374188;27;19924;-63
2022/01/02 15:13:55;;;;;;;;;;;;;;;-10.27;70.05;95436.31;6374302;27;19924;-63
2022/01/02 15:16:56;;;;;;;;;;;;;;;-10.35;69.70;95421.09;6374411;27;20388;-63
2022/01/02 15:20:02;;;;;;;;;;;;;;;-10.42;69.66;95421.97;6373839;27;19923;-62
2022/01/02 15:23:05;;;;;;;;;;;;;;;-10.41;70.53;95424.53;6374075;27;19923;-64
2022/01/02 15:26:07;;;;;;;;;;;;;;;-10.41;70.16;95421.16;6374091;27;19923;-64
2022/01/02 15:29:08;;;;;;;;;;;;;;;-10.31;69.83;95399.03;6373937;27;19930;-64
2022/01/02 15:32:10;;;;;;;;;;;;;;;-10.41;69.70;95405.91;6373274;27;20324;-63
2022/01/02 15:35:15;;;;;;;;;;;;;;;-10.46;70.28;95416.09;6374099;27;19923;-62
2022/01/02 15:38:19;;;;;;;;;;;;;;;-10.25;70.04;95399.78;6373959;27;19923;-63
2022/01/02 15:41:22;;;;;;;;;;;;;;;-10.42;70.16;95409.28;6373531;27;19930;-63
2022/01/02 15:44:24;;;;;;;;;;;;;;;-10.46;70.50;95400.00;6373020;27;20021;-63
2022/01/02 15:47:26;;;;;;;;;;;;;;;-10.43;70.92;95400.81;6372810;27;19923;-64
2022/01/02 15:50:27;;;;;;;;;;;;;;;-10.25;70.80;95414.19;6372605;27;19931;-62
2022/01/02 15:53:31;;;;;;;;;;;;;;;-10.28;70.41;95399.00;6373423;27;20376;-63
2022/01/02 15:56:35;;;;;;;;;;;;;;;-10.23;70.08;95408.25;6373451;27;19927;-62
2022/01/02 15:59:36;;;;;;;;;;;;;;;-10.27;70.53;95405.78;6372999;27;20392;-65
2022/01/02 16:02:37;;;;;;;;;;;;;;;-10.30;70.65;95390.53;6372804;27;20064;-63
2022/01/02 16:05:39;;;;;;;;;;;;;;;-10.45;71.56;95382.16;6372854;27;19930;-63
2022/01/02 16:08:42;;;;;;;;;;;;;;;-10.37;71.81;95383.81;6372621;27;20389;-62
2022/01/02 16:11:44;;;;;;;;;;;;;;;-10.28;72.04;95369.31;6372938;27;19930;-63
2022/01/02 16:14:48;;;;;;;;;;;;;;;-10.40;72.43;95372.81;6371848;27;20309;-63
2022/01/02 16:17:54;;;;;;;;;;;;;;;-10.54;72.12;95376.31;6372950;27;19923;-63
2022/01/02 16:20:55;;;;;;;;;;;;;;;-10.45;71.90;95377.09;6371707;27;20013;-62
2022/01/02 16:23:58;;;;;;;;;;;;;;;-10.49;72.40;95375.44;6371609;27;20396;-62
2022/01/02 16:26:59;;;;;;;;;;;;;;;-10.42;72.48;95389.78;6372020;27;19973;-62
2022/01/02 16:30:00;;;;;;;;;;;;;;;-10.22;71.96;95391.28;6372492;27;19923;-61
2022/01/02 16:33:02;;;;;;;;;;;;;;;-10.20;72.13;95384.50;6371990;27;20020;-63
2022/01/02 16:36:03;;;;;;;;;;;;;;;-10.08;71.33;95371.66;6372092;27;20407;-62
2022/01/02 16:39:07;;;;;;;;;;;;;;;-9.96;71.36;95366.47;6372070;27;19930;-63
2022/01/02 16:42:09;;;;;;;;;;;;;;;-9.99;71.95;95371.59;6372070;27;19927;-62
2022/01/02 16:45:15;;;;;;;;;;;;;;;-9.94;71.49;95369.81;6372289;27;19923;-62
2022/01/02 16:48:16;;;;;;;;;;;;;;;-9.79;71.41;95353.59;6372074;27;19923;-63
2022/01/02 16:51:17;;;;;;;;;;;;;;;-9.74;70.83;95362.03;6371851;27;19923;-62
2022/01/02 16:54:19;;;;;;;;;;;;;;;-9.70;71.10;95351.81;6372043;27;19929;-62